Terminal Aerodrome Forecast
Issued by NWS

Current Version | Previous Version | Text Only | Print | Product List | Glossary On
Versions: 1 2 3 4 5 6 7 8 9 10 11 12 13 14 15 16 17
000
FTUS45 KVEF 201736
TAFBIH
TAF
KBIH 201736Z 2018/2118 16010KT P6SM -RA SCT020 BKN050 OVC070
     FM202000 16015G22KT P6SM -RA SCT020 OVC050=

USA.gov is the U.S. government's official web portal to all federal, state and local government web resources and services.